Time;durP1;ratioP1;P1;durP2;ratioP2;P2;SDS_P1;SDS_P2;PMS_P1;PMS_P2;Temp;Humidity;BMP_temperature;BMP_pressure;BME280_temperature;BME280_humidity;BME280_pressure;Samples;Min_cycle;Max_cycle;Signal;HPM_P1;HPM_P2
2022/10/19 00:02:03;;;;;;;2.60;2.03;;;21.70;48.30;;;;;;5012892;28;20730;-62
2022/10/19 00:04:28;;;;;;;1.80;1.70;;;21.70;48.30;;;;;;5019743;28;20226;-62
2022/10/19 00:06:54;;;;;;;1.80;1.70;;;21.70;48.20;;;;;;5018724;28;20226;-62
2022/10/19 00:09:19;;;;;;;2.43;2.00;;;21.70;48.20;;;;;;5019061;28;20219;-62
2022/10/19 00:11:47;;;;;;;1.80;1.70;;;21.70;48.20;;;;;;5023555;28;20346;-61
2022/10/19 00:14:19;;;;;;;2.00;1.90;;;21.70;48.20;;;;;;5015218;28;20234;-62
2022/10/19 00:16:47;;;;;;;1.63;1.53;;;21.70;48.20;;;;;;5025104;28;20447;-62
2022/10/19 00:19:15;;;;;;;1.80;1.70;;;21.70;49.10;;;;;;5015203;28;22238;-61
2022/10/19 00:21:41;;;;;;;1.93;1.83;;;21.70;48.20;;;;;;5010204;28;20509;-62
2022/10/19 00:24:07;;;;;;;1.63;1.53;;;21.70;48.20;;;;;;5015265;28;20448;-60
2022/10/19 00:26:33;;;;;;;1.90;1.80;;;21.70;48.20;;;;;;5021710;28;20262;-63
2022/10/19 00:28:59;;;;;;;1.80;1.70;;;21.70;48.20;;;;;;5017797;28;21237;-63
2022/10/19 00:31:26;;;;;;;2.03;1.80;;;21.70;48.20;;;;;;5021409;28;20268;-62
2022/10/19 00:33:52;;;;;;;7.03;1.83;;;21.70;48.20;;;;;;5019147;28;20238;-63
2022/10/19 00:36:23;;;;;;;2.13;1.80;;;21.70;48.20;;;;;;5005310;28;20445;-63
2022/10/19 00:38:49;;;;;;;1.83;1.73;;;21.70;48.10;;;;;;5016430;28;20452;-64
2022/10/19 00:41:16;;;;;;;2.03;1.93;;;21.70;48.20;;;;;;5021513;28;20547;-61
2022/10/19 00:44:01;;;;;;;1.63;1.53;;;21.70;48.20;;;;;;5020459;28;20450;-62
2022/10/19 00:46:29;;;;;;;1.70;1.60;;;21.70;48.30;;;;;;5012144;28;20451;-60
2022/10/19 00:48:59;;;;;;;1.47;1.37;;;21.70;48.20;;;;;;5019263;28;20465;-61
2022/10/19 00:51:27;;;;;;;1.80;1.70;;;21.70;48.20;;;;;;5011886;28;20461;-61
2022/10/19 00:53:53;;;;;;;1.70;1.60;;;21.70;48.20;;;;;;5012004;28;20452;-62
2022/10/19 00:56:19;;;;;;;1.60;1.50;;;21.70;48.20;;;;;;5018488;28;20809;-62
2022/10/19 00:58:45;;;;;;;1.57;1.47;;;21.70;48.20;;;;;;5017093;28;20468;-63
2022/10/19 01:01:14;;;;;;;1.80;1.70;;;21.70;49.00;;;;;;5006336;28;20224;-61
2022/10/19 01:03:39;;;;;;;1.77;1.67;;;21.70;48.20;;;;;;5013399;28;20223;-61
2022/10/19 01:06:05;;;;;;;1.90;1.80;;;21.70;48.20;;;;;;5016456;28;20459;-62
2022/10/19 01:08:31;;;;;;;1.93;1.80;;;21.70;48.10;;;;;;5014707;28;20238;-61
2022/10/19 01:11:10;;;;;;;1.40;1.30;;;21.70;48.20;;;;;;5012515;28;20465;-63
2022/10/19 01:14:00;;;;;;;1.50;1.40;;;21.70;48.10;;;;;;5014159;28;20268;-62
2022/10/19 01:17:00;;;;;;;1.80;1.70;;;21.70;48.10;;;;;;5014763;28;20483;-63
2022/10/19 01:19:48;;;;;;;1.87;1.77;;;21.70;48.10;;;;;;5014189;28;20476;-62
2022/10/19 01:22:17;;;;;;;1.80;1.70;;;21.70;48.10;;;;;;5013726;28;20472;-62
2022/10/19 01:24:55;;;;;;;2.07;1.60;;;21.70;48.10;;;;;;4999871;28;20450;-62
2022/10/19 01:27:26;;;;;;;1.70;1.60;;;21.70;48.10;;;;;;5021363;28;20470;-63
2022/10/19 01:30:01;;;;;;;1.70;1.60;;;21.70;48.10;;;;;;5006128;28;20582;-60
2022/10/19 01:32:57;;;;;;;1.90;1.70;;;21.70;48.10;;;;;;5011692;28;20479;-63
2022/10/19 01:35:32;;;;;;;2.17;1.60;;;21.70;48.10;;;;;;5021384;28;20541;-61
2022/10/19 01:38:10;;;;;;;2.17;1.97;;;21.60;48.00;;;;;;5018359;28;20459;-62
2022/10/19 01:41:04;;;;;;;1.53;1.43;;;21.60;48.00;;;;;;5014044;28;20463;-61
2022/10/19 01:43:52;;;;;;;1.60;1.50;;;21.60;48.00;;;;;;5016919;28;22111;-62
2022/10/19 01:46:30;;;;;;;1.83;1.73;;;21.60;48.00;;;;;;4999288;28;20545;-63
2022/10/19 01:49:03;;;;;;;1.87;1.77;;;21.60;48.00;;;;;;5010441;28;20510;-63
2022/10/19 01:51:34;;;;;;;1.67;1.57;;;21.60;48.00;;;;;;5021631;28;20483;-62
2022/10/19 01:54:04;;;;;;;1.63;1.53;;;21.60;48.00;;;;;;5016474;28;20464;-63
2022/10/19 01:56:33;;;;;;;2.33;2.17;;;21.60;48.00;;;;;;5018612;28;20471;-64
2022/10/19 01:59:02;;;;;;;1.70;1.60;;;21.60;48.00;;;;;;5017913;28;20868;-59
2022/10/19 02:01:32;;;;;;;1.57;1.37;;;21.60;48.00;;;;;;5011026;28;20453;-62
2022/10/19 02:03:59;;;;;;;1.60;1.50;;;21.60;48.00;;;;;;5011671;28;20459;-63
2022/10/19 02:06:25;;;;;;;1.70;1.60;;;21.60;48.00;;;;;;5009737;28;20525;-59
2022/10/19 02:08:52;;;;;;;1.57;1.47;;;21.60;47.90;;;;;;5021067;28;20459;-62
2022/10/19 02:11:21;;;;;;;1.70;1.60;;;21.60;48.00;;;;;;5019711;28;20440;-62
2022/10/19 02:13:51;;;;;;;1.80;1.70;;;21.60;47.90;;;;;;5017058;28;20458;-61
2022/10/19 02:16:26;;;;;;;1.60;1.50;;;21.60;48.00;;;;;;5019398;28;20494;-63
2022/10/19 02:18:54;;;;;;;1.60;1.50;;;21.60;47.90;;;;;;5017722;28;20497;-63
2022/10/19 02:21:20;;;;;;;1.50;1.40;;;21.60;47.90;;;;;;5002392;28;20452;-59
2022/10/19 02:23:45;;;;;;;1.40;1.30;;;21.60;48.00;;;;;;5020532;28;20509;-63
2022/10/19 02:26:11;;;;;;;1.70;1.60;;;21.60;47.90;;;;;;5009657;28;20239;-62
2022/10/19 02:28:37;;;;;;;1.67;1.57;;;21.60;47.90;;;;;;5000434;28;20235;-64
2022/10/19 02:31:03;;;;;;;1.60;1.50;;;21.60;47.90;;;;;;5000106;28;20274;-62
2022/10/19 02:33:30;;;;;;;1.50;1.40;;;21.60;47.90;;;;;;5002396;28;20468;-59
2022/10/19 02:35:57;;;;;;;2.13;1.50;;;21.60;47.90;;;;;;5020103;28;20459;-63
2022/10/19 02:38:23;;;;;;;1.70;1.60;;;21.60;47.80;;;;;;5015107;28;20873;-62
2022/10/19 02:41:21;;;;;;;1.90;1.80;;;21.60;47.90;;;;;;5021783;28;20519;-62
2022/10/19 02:43:56;;;;;;;1.47;1.37;;;21.60;47.80;;;;;;5010527;28;20455;-63
2022/10/19 02:46:24;;;;;;;1.63;1.50;;;21.60;47.80;;;;;;5011259;28;20448;-63
2022/10/19 02:48:50;;;;;;;1.47;1.37;;;21.60;47.80;;;;;;5018445;28;20658;-62
2022/10/19 02:51:27;;;;;;;1.80;1.70;;;21.60;47.80;;;;;;5011051;28;20935;-62
2022/10/19 02:53:52;;;;;;;1.50;1.40;;;21.60;47.80;;;;;;5014671;28;20471;-62
2022/10/19 02:56:18;;;;;;;1.83;1.73;;;21.60;47.80;;;;;;5020082;28;20428;-62
2022/10/19 02:58:43;;;;;;;1.50;1.40;;;21.60;47.80;;;;;;5016594;28;20740;-63
2022/10/19 03:01:09;;;;;;;1.23;1.13;;;21.60;47.80;;;;;;5018697;28;20253;-62
2022/10/19 03:03:34;;;;;;;1.47;1.37;;;21.60;47.80;;;;;;5018281;28;20328;-62
2022/10/19 03:06:00;;;;;;;1.60;1.50;;;21.60;47.80;;;;;;5019533;28;20224;-63
2022/10/19 03:08:25;;;;;;;1.40;1.30;;;21.60;47.80;;;;;;5017389;28;20226;-61
2022/10/19 03:10:51;;;;;;;1.50;1.40;;;21.60;47.80;;;;;;5017286;28;20225;-62
2022/10/19 03:13:16;;;;;;;1.60;1.50;;;21.60;47.80;;;;;;5018478;28;20225;-61
2022/10/19 03:15:42;;;;;;;1.37;1.27;;;21.60;47.80;;;;;;5018711;28;20465;-61
2022/10/19 03:18:07;;;;;;;1.60;1.50;;;21.60;47.80;;;;;;5016330;28;20269;-63
2022/10/19 03:20:33;;;;;;;1.50;1.40;;;21.60;47.80;;;;;;5013914;28;20557;-62
2022/10/19 03:22:58;;;;;;;1.40;1.30;;;21.60;47.80;;;;;;5001158;28;20255;-62
2022/10/19 03:25:24;;;;;;;1.53;1.43;;;21.60;47.70;;;;;;5014127;28;20262;-60
2022/10/19 03:27:49;;;;;;;1.40;1.30;;;21.60;47.80;;;;;;5012346;28;20591;-61
2022/10/19 03:30:15;;;;;;;2.07;1.40;;;21.60;47.80;;;;;;5016283;28;20657;-63
2022/10/19 03:32:40;;;;;;;1.57;1.47;;;21.60;47.80;;;;;;5013567;28;20216;-62
2022/10/19 03:35:06;;;;;;;1.50;1.40;;;21.60;47.70;;;;;;5012847;28;20229;-62
2022/10/19 03:37:32;;;;;;;1.67;1.57;;;21.60;47.70;;;;;;5018975;28;20231;-62
2022/10/19 03:39:57;;;;;;;1.70;1.60;;;21.60;47.80;;;;;;5011009;28;20456;-63
2022/10/19 03:42:23;;;;;;;2.13;1.60;;;21.60;47.70;;;;;;5009346;28;20231;-62
2022/10/19 03:44:48;;;;;;;1.50;1.40;;;21.60;47.80;;;;;;5017523;28;20230;-63
2022/10/19 03:47:14;;;;;;;1.53;1.43;;;21.60;47.70;;;;;;5011739;28;20333;-63
2022/10/19 03:49:39;;;;;;;2.13;1.53;;;21.60;47.80;;;;;;5012542;28;20219;-61
2022/10/19 03:52:05;;;;;;;1.30;1.20;;;21.50;47.60;;;;;;5006458;28;20249;-62
2022/10/19 03:54:31;;;;;;;1.53;1.43;;;21.60;47.80;;;;;;5008483;28;20266;-62
2022/10/19 03:56:56;;;;;;;1.40;1.30;;;21.60;47.70;;;;;;5007394;28;20299;-61
2022/10/19 03:59:23;;;;;;;1.40;1.30;;;21.60;47.70;;;;;;5014511;28;20317;-62
2022/10/19 04:01:48;;;;;;;1.47;1.33;;;21.60;47.80;;;;;;5016822;28;20257;-61
2022/10/19 04:04:17;;;;;;;1.60;1.50;;;21.60;47.80;;;;;;5017629;28;20520;-62
2022/10/19 04:06:45;;;;;;;1.50;1.40;;;21.60;47.70;;;;;;5016824;28;20298;-62
2022/10/19 04:09:13;;;;;;;1.60;1.50;;;21.60;47.70;;;;;;5005366;28;20500;-62
2022/10/19 04:11:39;;;;;;;1.53;1.43;;;21.50;47.60;;;;;;5007687;28;21178;-63
2022/10/19 04:14:05;;;;;;;1.23;1.13;;;21.60;47.70;;;;;;5014141;28;20472;-62
2022/10/19 04:16:31;;;;;;;1.53;1.43;;;21.60;47.70;;;;;;5013100;28;20448;-61
2022/10/19 04:18:57;;;;;;;1.60;1.50;;;21.60;48.50;;;;;;5012065;28;20316;-64
2022/10/19 04:21:25;;;;;;;1.50;1.40;;;21.60;47.60;;;;;;5011261;28;20759;-61
2022/10/19 04:23:53;;;;;;;3.20;1.20;;;21.60;47.60;;;;;;5012371;28;21174;-60
2022/10/19 04:26:19;;;;;;;1.33;1.23;;;21.60;47.60;;;;;;5005787;28;20957;-62
2022/10/19 04:28:45;;;;;;;1.30;1.20;;;21.60;47.60;;;;;;5002805;28;20462;-61
2022/10/19 04:31:11;;;;;;;1.77;1.40;;;21.60;47.50;;;;;;5008319;28;20779;-61
2022/10/19 04:33:37;;;;;;;1.40;1.30;;;21.60;47.50;;;;;;5013709;28;20231;-63
2022/10/19 04:36:05;;;;;;;1.30;1.20;;;21.60;47.50;;;;;;5012637;28;20460;-63
2022/10/19 04:38:31;;;;;;;1.57;1.30;;;21.60;47.40;;;;;;5003987;28;20475;-60
2022/10/19 04:41:08;;;;;;;1.47;1.33;;;21.70;47.50;;;;;;5007052;28;20959;-61
2022/10/19 04:43:34;;;;;;;1.40;1.30;;;21.70;47.40;;;;;;5008356;28;20452;-63
2022/10/19 04:46:09;;;;;;;1.30;1.20;;;21.70;48.10;;;;;;5003605;28;20449;-61
2022/10/19 04:48:36;;;;;;;1.40;1.30;;;21.70;47.50;;;;;;5008667;28;20577;-63
2022/10/19 04:51:03;;;;;;;1.50;1.40;;;21.70;47.50;;;;;;5010939;28;20453;-63
2022/10/19 04:53:28;;;;;;;1.40;1.30;;;21.70;47.40;;;;;;5004143;28;20468;-61
2022/10/19 04:55:54;;;;;;;1.47;1.37;;;21.70;47.40;;;;;;5010160;28;21021;-63
2022/10/19 04:58:19;;;;;;;1.30;1.20;;;21.70;47.30;;;;;;5012829;28;20614;-60
2022/10/19 05:00:45;;;;;;;1.30;1.20;;;21.70;47.30;;;;;;5001348;28;20233;-61
2022/10/19 05:03:11;;;;;;;2.07;1.30;;;21.70;47.40;;;;;;5000169;28;20549;-59
2022/10/19 05:05:36;;;;;;;1.60;1.50;;;21.70;47.40;;;;;;5004594;28;20260;-63
2022/10/19 05:08:02;;;;;;;2.70;1.30;;;21.70;47.30;;;;;;4968523;28;20259;-62
2022/10/19 05:10:27;;;;;;;1.50;1.40;;;21.70;47.30;;;;;;5003278;28;21591;-62
2022/10/19 05:12:53;;;;;;;1.40;1.30;;;21.70;47.60;;;;;;5002664;28;20241;-60
2022/10/19 05:15:19;;;;;;;1.50;1.40;;;21.70;47.30;;;;;;4996123;28;20233;-59
2022/10/19 05:17:44;;;;;;;1.40;1.30;;;21.70;47.30;;;;;;5003953;28;20229;-61
2022/10/19 05:20:10;;;;;;;1.67;1.57;;;21.70;47.30;;;;;;5008647;28;20211;-62
2022/10/19 05:22:39;;;;;;;1.50;1.40;;;21.70;47.30;;;;;;5001357;28;20222;-59
2022/10/19 05:25:06;;;;;;;1.73;1.30;;;21.70;47.20;;;;;;5002453;28;20235;-62
2022/10/19 05:27:32;;;;;;;1.50;1.40;;;21.70;47.20;;;;;;5006724;28;21174;-62
2022/10/19 05:29:57;;;;;;;1.43;1.33;;;21.70;47.20;;;;;;5003036;28;20475;-61
2022/10/19 05:32:23;;;;;;;1.50;1.30;;;21.70;47.30;;;;;;4999468;28;20659;-60
2022/10/19 05:34:48;;;;;;;1.43;1.33;;;21.70;47.30;;;;;;4998287;28;20222;-61
2022/10/19 05:37:15;;;;;;;3.20;1.40;;;21.70;47.20;;;;;;5001314;28;20600;-60
2022/10/19 05:39:41;;;;;;;1.47;1.37;;;21.70;47.30;;;;;;5004019;28;20244;-61
2022/10/19 05:42:07;;;;;;;1.60;1.47;;;21.70;47.20;;;;;;5004521;28;20523;-62
2022/10/19 05:44:33;;;;;;;1.93;1.20;;;21.70;47.20;;;;;;5004524;28;20280;-62
2022/10/19 05:46:59;;;;;;;1.30;1.20;;;21.70;47.20;;;;;;5002056;28;20207;-60
2022/10/19 05:49:24;;;;;;;1.73;1.50;;;21.70;47.20;;;;;;4990998;28;20234;-59
2022/10/19 05:51:50;;;;;;;1.40;1.30;;;21.70;47.20;;;;;;5004721;28;20873;-62
2022/10/19 05:54:16;;;;;;;1.30;1.20;;;21.70;47.20;;;;;;5000001;28;20226;-62
2022/10/19 05:56:42;;;;;;;1.20;1.10;;;21.60;47.10;;;;;;4993964;28;20223;-62
2022/10/19 05:59:13;;;;;;;1.30;1.20;;;21.70;47.20;;;;;;4998495;28;20452;-62
2022/10/19 06:01:39;;;;;;;2.43;1.20;;;21.70;47.10;;;;;;4993127;28;20435;-62
2022/10/19 06:04:06;;;;;;;2.13;1.50;;;21.70;47.20;;;;;;5003036;28;21372;-59
2022/10/19 06:06:32;;;;;;;1.30;1.20;;;21.70;47.20;;;;;;5000612;28;20226;-62
2022/10/19 06:08:58;;;;;;;1.40;1.30;;;21.70;47.30;;;;;;4990226;28;20461;-61
2022/10/19 06:11:36;;;;;;;1.40;1.30;;;21.70;47.10;;;;;;5004795;28;21411;-59
2022/10/19 06:14:04;;;;;;;1.40;1.23;;;21.70;47.10;;;;;;5003440;28;20497;-59
2022/10/19 06:16:30;;;;;;;1.93;1.30;;;21.70;47.10;;;;;;5000852;28;20447;-59
2022/10/19 06:18:56;;;;;;;1.47;1.33;;;21.70;47.00;;;;;;5002620;28;20430;-61
2022/10/19 06:21:25;;;;;;;2.13;1.90;;;21.70;47.10;;;;;;5003725;28;20419;-62
2022/10/19 06:23:52;;;;;;;2.83;1.30;;;21.70;47.10;;;;;;5010257;28;21282;-62
2022/10/19 06:26:18;;;;;;;1.60;1.50;;;21.70;47.00;;;;;;5001692;28;20595;-63
2022/10/19 06:28:44;;;;;;;1.30;1.20;;;21.70;47.10;;;;;;5003459;28;20503;-61
2022/10/19 06:31:11;;;;;;;2.47;1.37;;;21.70;47.00;;;;;;5007198;28;20547;-61
2022/10/19 06:33:39;;;;;;;1.47;1.37;;;21.70;47.10;;;;;;4999312;28;20223;-61
2022/10/19 06:36:07;;;;;;;1.70;1.23;;;21.70;47.10;;;;;;4981765;28;20482;-62
2022/10/19 06:38:32;;;;;;;1.40;1.30;;;21.70;47.20;;;;;;5004508;28;20452;-60
2022/10/19 06:40:58;;;;;;;1.40;1.20;;;21.70;47.00;;;;;;5003052;28;20456;-59
2022/10/19 06:43:24;;;;;;;1.70;1.53;;;21.70;47.00;;;;;;5001485;28;20227;-62
2022/10/19 06:45:50;;;;;;;1.43;1.33;;;21.70;47.10;;;;;;4998440;28;20470;-63
2022/10/19 06:48:15;;;;;;;1.53;1.43;;;21.70;47.00;;;;;;4997767;28;20263;-61
2022/10/19 06:50:41;;;;;;;2.80;1.63;;;21.70;47.00;;;;;;4989644;28;20211;-63
2022/10/19 06:53:06;;;;;;;2.07;1.40;;;21.70;47.00;;;;;;5001374;28;20238;-61
2022/10/19 06:55:32;;;;;;;1.40;1.30;;;21.70;47.00;;;;;;5006102;28;20317;-62
2022/10/19 06:58:00;;;;;;;2.67;1.50;;;21.70;47.00;;;;;;4999357;28;20879;-62
2022/10/19 07:00:29;;;;;;;3.10;1.30;;;21.70;47.00;;;;;;5000485;28;20222;-61
2022/10/19 07:02:55;;;;;;;2.43;1.70;;;21.70;47.10;;;;;;4996791;28;20958;-60
2022/10/19 07:05:21;;;;;;;3.27;1.53;;;21.70;47.00;;;;;;5004418;28;20478;-62
2022/10/19 07:07:46;;;;;;;2.03;1.67;;;21.70;47.00;;;;;;5000902;28;20313;-60
2022/10/19 07:10:12;;;;;;;2.43;1.40;;;21.70;47.80;;;;;;5001532;28;20253;-61
2022/10/19 07:12:38;;;;;;;2.70;1.40;;;21.70;47.00;;;;;;5001204;28;20257;-62
2022/10/19 07:15:04;;;;;;;2.33;1.50;;;21.70;47.00;;;;;;5002049;28;20562;-62
2022/10/19 07:17:30;;;;;;;2.73;1.47;;;21.70;47.00;;;;;;5001697;28;20606;-61
2022/10/19 07:19:55;;;;;;;3.30;1.67;;;21.70;47.00;;;;;;5003377;28;20472;-61
2022/10/19 07:22:21;;;;;;;2.77;1.60;;;21.70;47.00;;;;;;5004716;28;20222;-59
2022/10/19 07:24:47;;;;;;;2.47;1.50;;;21.70;46.90;;;;;;5010724;28;20226;-59
2022/10/19 07:27:12;;;;;;;1.57;1.47;;;21.70;47.00;;;;;;4995439;28;20223;-61
2022/10/19 07:29:38;;;;;;;1.77;1.60;;;21.70;46.90;;;;;;4996081;28;20230;-62
2022/10/19 07:32:03;;;;;;;1.43;1.33;;;21.70;47.00;;;;;;5005747;28;20801;-60
2022/10/19 07:34:29;;;;;;;2.23;1.40;;;21.70;47.00;;;;;;5006108;28;20967;-63
2022/10/19 07:36:54;;;;;;;2.53;1.20;;;21.70;47.00;;;;;;4997362;28;21764;-59
2022/10/19 07:39:20;;;;;;;1.40;1.30;;;21.70;46.90;;;;;;5017611;28;20233;-62
2022/10/19 07:41:46;;;;;;;1.90;1.80;;;21.70;46.90;;;;;;5024291;28;20225;-62
2022/10/19 07:44:14;;;;;;;2.30;1.50;;;21.70;46.90;;;;;;5006917;28;20262;-62
2022/10/19 07:46:41;;;;;;;1.50;1.40;;;21.70;46.90;;;;;;5019407;28;20226;-62
2022/10/19 07:49:09;;;;;;;1.70;1.60;;;21.70;46.90;;;;;;5010047;28;20480;-61
2022/10/19 07:51:36;;;;;;;2.10;1.80;;;21.70;47.00;;;;;;5018866;28;20987;-62
2022/10/19 07:54:02;;;;;;;1.30;1.20;;;21.70;46.90;;;;;;5023979;28;20463;-61
2022/10/19 07:56:28;;;;;;;2.27;1.53;;;21.70;46.90;;;;;;5022824;28;20418;-63
2022/10/19 07:58:55;;;;;;;2.17;1.50;;;21.70;46.90;;;;;;5014394;28;20230;-59
2022/10/19 08:01:23;;;;;;;1.63;1.53;;;21.70;46.90;;;;;;5020096;28;20229;-63
2022/10/19 08:03:52;;;;;;;2.13;1.40;;;21.70;46.90;;;;;;5021808;28;20456;-63
2022/10/19 08:06:19;;;;;;;1.40;1.30;;;21.70;46.90;;;;;;5019947;28;20530;-63
2022/10/19 08:08:46;;;;;;;2.43;1.50;;;21.70;46.90;;;;;;5021240;28;20480;-60
2022/10/19 08:11:15;;;;;;;1.40;1.30;;;21.70;46.90;;;;;;5017909;28;20465;-59
2022/10/19 08:13:41;;;;;;;1.70;1.60;;;21.70;46.90;;;;;;5018916;28;20911;-60
2022/10/19 08:16:25;;;;;;;1.40;1.30;;;21.70;46.90;;;;;;5001913;28;20844;-58
2022/10/19 08:18:51;;;;;;;1.57;1.40;;;21.70;46.90;;;;;;5009112;28;20574;-60
2022/10/19 08:21:17;;;;;;;1.60;1.50;;;21.70;46.90;;;;;;5012398;28;20483;-59
2022/10/19 08:23:43;;;;;;;2.60;1.50;;;21.70;46.90;;;;;;5016614;28;20474;-62
2022/10/19 08:26:08;;;;;;;1.63;1.40;;;21.70;46.80;;;;;;5020557;28;20239;-63
2022/10/19 08:28:34;;;;;;;1.40;1.30;;;21.70;46.80;;;;;;5014379;28;20288;-62
2022/10/19 08:31:19;;;;;;;2.13;1.80;;;21.70;46.90;;;;;;5019362;28;20246;-61
2022/10/19 08:33:44;;;;;;;3.20;1.60;;;21.70;46.90;;;;;;5011290;28;20222;-60
2022/10/19 08:36:12;;;;;;;1.60;1.50;;;21.70;46.90;;;;;;5025842;28;20474;-59
2022/10/19 08:38:38;;;;;;;1.50;1.40;;;21.70;46.90;;;;;;5018673;28;20737;-61
2022/10/19 08:41:35;;;;;;;1.43;1.17;;;21.70;46.90;;;;;;5008492;28;20444;-62
2022/10/19 08:44:22;;;;;;;1.50;1.40;;;21.70;46.90;;;;;;5003600;28;20483;-63
2022/10/19 08:46:56;;;;;;;1.50;1.40;;;21.70;46.90;;;;;;5012118;28;20468;-61
2022/10/19 08:49:25;;;;;;;1.43;1.33;;;21.70;46.90;;;;;;5023525;28;20500;-61
2022/10/19 08:51:59;;;;;;;1.77;1.67;;;21.70;46.90;;;;;;5020191;28;20949;-61
2022/10/19 08:54:38;;;;;;;1.50;1.40;;;21.70;46.90;;;;;;5013189;28;21026;-63
2022/10/19 08:57:38;;;;;;;1.60;1.50;;;21.70;47.70;;;;;;5016962;28;20450;-63
2022/10/19 09:00:36;;;;;;;1.40;1.30;;;21.70;46.90;;;;;;5020084;28;20452;-63
2022/10/19 09:03:20;;;;;;;1.50;1.30;;;21.70;46.90;;;;;;5021043;28;20813;-60
2022/10/19 09:05:56;;;;;;;1.47;1.37;;;21.70;46.90;;;;;;5024075;28;20455;-63
2022/10/19 09:08:22;;;;;;;1.30;1.20;;;21.70;46.90;;;;;;5024235;28;20599;-62
2022/10/19 09:10:53;;;;;;;1.50;1.40;;;21.70;46.90;;;;;;5025427;28;20464;-61
2022/10/19 09:13:44;;;;;;;1.53;1.43;;;21.70;46.80;;;;;;5013905;28;20226;-63
2022/10/19 09:16:16;;;;;;;1.40;1.30;;;21.70;46.80;;;;;;5015308;28;20426;-63
2022/10/19 09:18:42;;;;;;;1.60;1.50;;;21.70;46.80;;;;;;5022640;28;20462;-62
2022/10/19 09:21:26;;;;;;;1.40;1.30;;;21.70;46.80;;;;;;5015856;28;20523;-63
2022/10/19 09:24:03;;;;;;;1.57;1.47;;;21.70;46.80;;;;;;5025421;28;22175;-62
2022/10/19 09:26:34;;;;;;;1.57;1.47;;;21.70;46.80;;;;;;5021357;28;21222;-63
2022/10/19 09:29:15;;;;;;;1.80;1.50;;;21.70;46.80;;;;;;5027237;28;20559;-62
2022/10/19 09:31:44;;;;;;;1.50;1.40;;;21.70;46.80;;;;;;5021018;28;20841;-63
2022/10/19 09:34:45;;;;;;;1.30;1.20;;;21.70;47.60;;;;;;5021703;28;21143;-62
2022/10/19 09:37:11;;;;;;;1.60;1.50;;;21.80;46.80;;;;;;4974800;28;20500;-60
2022/10/19 09:39:37;;;;;;;3.07;1.67;;;21.70;46.90;;;;;;5018819;28;20472;-62
2022/10/19 09:42:17;;;;;;;1.47;1.37;;;21.80;46.90;;;;;;5009725;28;20438;-61
2022/10/19 09:44:43;;;;;;;3.37;1.20;;;21.80;46.80;;;;;;5022506;28;20317;-60
2022/10/19 09:47:33;;;;;;;1.43;1.33;;;21.80;46.80;;;;;;5017675;28;20461;-61
2022/10/19 09:50:16;;;;;;;2.07;1.40;;;21.80;46.80;;;;;;5023587;28;20268;-61
2022/10/19 09:52:47;;;;;;;1.43;1.30;;;21.80;46.80;;;;;;5018677;28;20996;-61
2022/10/19 09:55:13;;;;;;;1.60;1.50;;;21.80;46.80;;;;;;5023571;28;20535;-60
2022/10/19 09:57:57;;;;;;;2.00;1.30;;;21.80;46.90;;;;;;5023913;28;20606;-62
2022/10/19 10:00:25;;;;;;;1.50;1.40;;;21.80;46.80;;;;;;5015956;28;20292;-61
2022/10/19 10:02:52;;;;;;;1.47;1.37;;;21.80;46.80;;;;;;5023790;28;20520;-59
2022/10/19 10:05:19;;;;;;;1.80;1.70;;;21.80;46.80;;;;;;5017659;28;20463;-60
2022/10/19 10:07:45;;;;;;;2.90;1.70;;;21.80;46.80;;;;;;5019156;28;20529;-61
2022/10/19 10:10:20;;;;;;;2.50;1.30;;;21.80;46.80;;;;;;5020710;28;20479;-60
2022/10/19 10:12:46;;;;;;;1.40;1.30;;;21.80;46.80;;;;;;5014789;28;20816;-63
2022/10/19 10:15:20;;;;;;;1.50;1.40;;;21.80;46.80;;;;;;5018591;28;20456;-60
2022/10/19 10:17:47;;;;;;;1.80;1.70;;;21.80;46.80;;;;;;5015380;28;20488;-60
2022/10/19 10:20:29;;;;;;;4.80;1.27;;;21.80;46.70;;;;;;5019516;28;20465;-62
2022/10/19 10:22:58;;;;;;;1.30;1.20;;;21.80;46.80;;;;;;5018723;28;20481;-61
2022/10/19 10:25:26;;;;;;;1.20;1.10;;;21.80;46.70;;;;;;5026757;28;20459;-60
2022/10/19 10:27:55;;;;;;;1.30;1.20;;;21.80;46.80;;;;;;5012199;28;20525;-61
2022/10/19 10:30:21;;;;;;;1.37;1.27;;;21.80;46.80;;;;;;5018448;28;20456;-62
2022/10/19 10:32:52;;;;;;;1.30;1.20;;;21.80;46.80;;;;;;5024271;28;20444;-61
2022/10/19 10:35:23;;;;;;;1.33;1.23;;;21.80;46.70;;;;;;5023110;28;20683;-60
2022/10/19 10:37:49;;;;;;;1.40;1.30;;;21.80;46.70;;;;;;5020872;28;20885;-61
2022/10/19 10:40:37;;;;;;;1.40;1.30;;;21.80;46.60;;;;;;5023039;28;20456;-61
2022/10/19 10:43:14;;;;;;;1.30;1.20;;;21.80;46.70;;;;;;5014195;28;20229;-61
2022/10/19 10:45:44;;;;;;;1.90;1.80;;;21.80;46.60;;;;;;5013289;28;20467;-62
2022/10/19 10:48:18;;;;;;;1.40;1.30;;;21.80;46.70;;;;;;5015878;28;20469;-59
2022/10/19 10:50:44;;;;;;;1.40;1.30;;;21.80;46.70;;;;;;5010742;28;20467;-61
2022/10/19 10:53:32;;;;;;;1.53;1.43;;;21.80;46.70;;;;;;5015405;28;20840;-60
2022/10/19 10:55:58;;;;;;;1.47;1.37;;;21.80;46.60;;;;;;5014914;28;20229;-60
2022/10/19 10:58:46;;;;;;;1.00;1.00;;;21.80;46.60;;;;;;5007376;28;20479;-62
2022/10/19 11:01:21;;;;;;;1.40;1.30;;;21.90;46.70;;;;;;5008593;28;20675;-62
2022/10/19 11:04:12;;;;;;;1.40;1.30;;;21.80;46.60;;;;;;5015371;28;20462;-61
2022/10/19 11:06:44;;;;;;;1.40;1.23;;;21.80;46.60;;;;;;5015363;28;21094;-61
2022/10/19 11:09:23;;;;;;;1.70;1.60;;;21.80;46.60;;;;;;5009854;28;20980;-61
2022/10/19 11:11:54;;;;;;;1.30;1.20;;;21.80;46.70;;;;;;5009446;28;20463;-62
2022/10/19 11:14:24;;;;;;;1.40;1.10;;;21.80;46.60;;;;;;5010124;28;20476;-62
2022/10/19 11:16:53;;;;;;;1.50;1.40;;;21.80;46.60;;;;;;5009830;28;20460;-62
2022/10/19 11:19:35;;;;;;;1.20;1.10;;;21.80;46.50;;;;;;5006826;28;20469;-60
2022/10/19 11:22:29;;;;;;;4.97;1.40;;;21.80;46.50;;;;;;5014931;28;20547;-60
2022/10/19 11:24:58;;;;;;;1.40;1.30;;;21.80;46.50;;;;;;5006059;28;20473;-61
2022/10/19 11:27:32;;;;;;;1.23;1.10;;;21.90;46.70;;;;;;5019779;28;20456;-61
2022/10/19 11:30:01;;;;;;;1.37;1.27;;;21.90;46.60;;;;;;5012324;28;20447;-60
2022/10/19 11:32:38;;;;;;;1.73;1.40;;;21.90;46.50;;;;;;5014193;28;20676;-61
2022/10/19 11:35:28;;;;;;;1.63;1.53;;;21.90;46.50;;;;;;5011819;28;20500;-61
2022/10/19 11:38:26;;;;;;;1.23;1.13;;;21.90;46.30;;;;;;5016378;28;20448;-62
2022/10/19 11:41:28;;;;;;;1.37;1.20;;;21.90;46.30;;;;;;5008812;28;20824;-61
2022/10/19 11:44:15;;;;;;;2.20;1.50;;;21.90;46.50;;;;;;4964566;28;20444;-61
2022/10/19 11:46:47;;;;;;;1.97;1.17;;;21.90;46.50;;;;;;5013297;28;20448;-60
2022/10/19 11:49:43;;;;;;;1.30;1.20;;;21.90;46.50;;;;;;5008598;28;20481;-61
2022/10/19 11:52:30;;;;;;;1.23;1.13;;;21.90;46.40;;;;;;5012246;28;21253;-60
2022/10/19 11:55:06;;;;;;;1.27;1.17;;;21.90;46.50;;;;;;5008437;28;20451;-61
2022/10/19 11:57:44;;;;;;;1.43;1.33;;;21.90;46.50;;;;;;5019414;28;20506;-62
2022/10/19 12:00:10;;;;;;;1.27;1.17;;;21.90;46.50;;;;;;5013248;28;20555;-59
2022/10/19 12:02:56;;;;;;;1.20;1.10;;;21.90;47.30;;;;;;5006410;28;20455;-60
2022/10/19 12:05:31;;;;;;;1.30;1.20;;;21.90;46.50;;;;;;5008703;28;22425;-60
2022/10/19 12:08:18;;;;;;;1.30;1.20;;;21.90;46.50;;;;;;5012370;28;20462;-61
2022/10/19 12:11:03;;;;;;;1.23;1.13;;;21.90;46.50;;;;;;5015473;28;21300;-60
2022/10/19 12:13:41;;;;;;;1.40;1.30;;;21.90;46.60;;;;;;5020701;28;20466;-62
2022/10/19 12:16:09;;;;;;;1.40;1.30;;;21.90;46.50;;;;;;5015890;28;21168;-60
2022/10/19 12:18:39;;;;;;;1.27;1.17;;;21.90;46.50;;;;;;5023287;28;20498;-62
2022/10/19 12:21:17;;;;;;;1.27;1.17;;;21.90;46.50;;;;;;5017537;28;20959;-60
2022/10/19 12:23:45;;;;;;;2.20;1.27;;;21.90;46.50;;;;;;5016043;28;20915;-60
2022/10/19 12:26:17;;;;;;;1.27;1.17;;;21.90;46.40;;;;;;5008365;28;20464;-59
2022/10/19 12:28:49;;;;;;;1.40;1.30;;;21.90;46.60;;;;;;5021431;28;20480;-62
2022/10/19 12:31:16;;;;;;;1.30;1.20;;;21.90;46.60;;;;;;5014866;28;20803;-60
2022/10/19 12:33:48;;;;;;;1.30;1.20;;;21.90;46.60;;;;;;5014749;28;20467;-60
2022/10/19 12:36:17;;;;;;;1.20;1.10;;;21.90;46.60;;;;;;5019459;28;20691;-60
2022/10/19 12:39:19;;;;;;;1.30;1.20;;;21.90;46.60;;;;;;5022922;28;20503;-59
2022/10/19 12:41:51;;;;;;;1.40;1.30;;;21.90;46.50;;;;;;4982520;28;20468;-61
2022/10/19 12:44:31;;;;;;;1.20;1.10;;;21.90;46.60;;;;;;5020139;28;20471;-60
2022/10/19 12:47:10;;;;;;;1.37;1.27;;;21.90;46.60;;;;;;5013388;28;20479;-60
2022/10/19 12:49:37;;;;;;;1.20;1.10;;;21.90;46.70;;;;;;5010142;28;22550;-60
2022/10/19 12:52:06;;;;;;;1.20;1.10;;;21.90;46.70;;;;;;5017935;28;21033;-58
2022/10/19 12:54:35;;;;;;;1.40;1.30;;;21.90;46.70;;;;;;5018351;28;20464;-61
2022/10/19 12:57:03;;;;;;;1.20;1.10;;;21.90;46.70;;;;;;5008567;28;20444;-61
2022/10/19 12:59:34;;;;;;;1.53;1.30;;;21.90;47.50;;;;;;5010217;28;20463;-61
2022/10/19 13:02:03;;;;;;;1.23;1.13;;;21.90;47.40;;;;;;5012055;28;20456;-61
2022/10/19 13:04:31;;;;;;;1.87;1.43;;;21.90;46.60;;;;;;5019604;28;20456;-61
2022/10/19 13:06:57;;;;;;;2.17;1.97;;;21.90;46.60;;;;;;5024355;28;20925;-61